Zapata, TX

14:39 CST le 25 novembre 2014 (GMT -0600)
Zapata | Change Station
CLOSE
Current Station
Aéroport
Location: Zapata,
Altitude: 423 ft
Stations météo à proximité

Alt. 423 ft 26.97 °N, 99.25 °W | Updated 24 minutes ago

Ciel dégagé
Ciel dégagé
68 ° F
Paraît 68 ° F
N
7
Vent Variable Vent de NNO

Aujourd'hui
Haut(e) -- | Bas -- ° F
--% Risque de précip.
Hier
Haut(e) -- | Bas -- ° F
Precip. -- pouce
7:04 AM 5:43 PM
Lune montante, 13% visible
Pression 30.30 pouce
Visibilité 10.0 Miles terrestres
Nuages Ciel dégagé
Point de rosée 26 ° F
Humidité 21%
Précipitations 0.00 pouce
Profondeur de la couche neigeuse Non disponible.
UV 4 sur 12
Pollen 5.80 sur 12
Qualité de l'air Non disponible.
Flu Activity Non disponible.
METAR KAPY 252015Z AUTO 34006KT 10SM CLR 20/M03 A3030 RMK AO2 T02001034

More Conditions Fewer Conditions

Pression 30.30 pouce
Visibilité 10.0 Miles terrestres
Nuages Ciel dégagé
Point de rosée 26 ° F
Humidité 21%
Précipitations 0.00 pouce
Profondeur de la couche neigeuse Non disponible.
UV 4 sur 12
Pollen 5.80 sur 12
Qualité de l'air Non disponible.
Flu Activity Non disponible.
METAR KAPY 252015Z AUTO 34006KT 10SM CLR 20/M03 A3030 RMK AO2 T02001034

More Conditions Fewer Conditions

10-Day Weather Forecast

Almanac

Astronomie

Nov. 25, 2014 Lever Coucher
Temps réel
Crépuscule civil
Crépuscule nautique
Crépuscule astronomique
Lune
Durée de lumière visible
Longueur du jour
Tomorrow will be .
, % of the Moon is Illuminated

Extrêmes aujourd'hui

State Highs State Lows

Community

WunderPhotos

Upload Photos

1,773,585 Photos téléchargées !

WunderBlogs® & News

Nearby

Qualité de l'air

  Qualité de l'air Indice de la qualité de l'air Polluant
Not available.

Épaisseur de neige

Station Depth Altitude

Activité sismique

Ville Distance Mag. Time & Date
Minimum magnitude displayed is 2.5.

Températures des eaux côtières

Lieu Température

Stations météo à proximité